This is the latest recevied weather packets stored in our database for station/object DL1MMS-10. If no packets are shown the sender has not sent any weather packets the latest 10 day(s).
| Time | Temp. | Humidity | Pressure | Rain* | Wind** | Luminosity | Snow |
|---|---|---|---|---|---|---|---|
| 1777922217 | 13.89° C | 76% | 1013.8 hPa | 0 mm | - | - | - |
| 1777921917 | 13.89° C | 77% | 1013.9 hPa | 0 mm | - | - | - |
| 1777921616 | 13.89° C | 76% | 1013.9 hPa | 0 mm | - | - | - |
| 1777921316 | 13.89° C | 76% | 1013.8 hPa | 0 mm | - | - | - |
| 1777921016 | 13.89° C | 75% | 1013.8 hPa | 0 mm | - | - | - |
| 1777920716 | 13.89° C | 74% | 1013.9 hPa | 0 mm | - | - | - |
| 1777920415 | 13.89° C | 72% | 1014.1 hPa | 0 mm | - | - | - |
| 1777920115 | 13.89° C | 71% | 1014.2 hPa | 0 mm | - | - | - |
| 1777919815 | 13.89° C | 71% | 1014 hPa | 0 mm | - | - | - |
| 1777919515 | 13.89° C | 70% | 1013.9 hPa | 0 mm | - | - | - |
| 1777919214 | 14.44° C | 68% | 1014 hPa | 0 mm | - | - | - |
| 1777918914 | 15° C | 65% | 1014.1 hPa | 0 mm | - | - | - |
| 1777918614 | 15.56° C | 62% | 1013.9 hPa | 0 mm | - | - | - |
| 1777918313 | 16.11° C | 60% | 1013.7 hPa | 0 mm | - | - | - |
| 1777918013 | 17.22° C | 56% | 1013.5 hPa | 0 mm | - | - | - |
| 1777917713 | 18.33° C | 52% | 1013.2 hPa | 0 mm | - | - | - |
| 1777917413 | 18.89° C | 50% | 1013.4 hPa | 0 mm | - | - | - |
| 1777917112 | 19.44° C | 48% | 1013.5 hPa | 0 mm | - | - | - |
| 1777916812 | 20° C | 46% | 1013.2 hPa | 0 mm | - | - | - |
| 1777916512 | 20° C | 46% | 1012.9 hPa | 0 mm | - | - | - |
| 1777916211 | 20° C | 46% | 1012.8 hPa | 0 mm | - | - | - |
| 1777915911 | 20° C | 46% | 1012.9 hPa | 0 mm | - | - | - |
| 1777915611 | 20° C | 46% | 1012.7 hPa | 0 mm | - | - | - |
| 1777915310 | 20.56° C | 45% | 1012.7 hPa | 0 mm | - | - | - |
| 1777915010 | 20.56° C | 45% | 1012.9 hPa | 0 mm | - | - | - |
* Rain latest hour (hover to see other rain measurements)
** Current wind speed in m/s (hover to see current wind gust speed)